sensor_id;sensor_type;location;lat;lon;timestamp;P1;durP1;ratioP1;P2;durP2;ratioP2
72284;SDS011;60220;53.552;10.092;2022-11-18T00:01:15;29.88;;;15.10;;
72284;SDS011;60220;53.552;10.092;2022-11-18T00:03:43;32.92;;;15.10;;
72284;SDS011;60220;53.552;10.092;2022-11-18T00:06:12;28.60;;;14.25;;
72284;SDS011;60220;53.552;10.092;2022-11-18T00:08:41;28.02;;;13.98;;
72284;SDS011;60220;53.552;10.092;2022-11-18T00:11:09;32.33;;;15.20;;
72284;SDS011;60220;53.552;10.092;2022-11-18T00:13:37;28.98;;;15.07;;
72284;SDS011;60220;53.552;10.092;2022-11-18T00:16:24;31.88;;;14.35;;
72284;SDS011;60220;53.552;10.092;2022-11-18T00:18:50;28.27;;;14.55;;
72284;SDS011;60220;53.552;10.092;2022-11-18T00:21:18;30.40;;;14.70;;
72284;SDS011;60220;53.552;10.092;2022-11-18T00:23:47;30.60;;;15.40;;
72284;SDS011;60220;53.552;10.092;2022-11-18T00:26:14;30.90;;;15.68;;
72284;SDS011;60220;53.552;10.092;2022-11-18T00:28:43;28.73;;;14.25;;
72284;SDS011;60220;53.552;10.092;2022-11-18T00:31:10;29.23;;;14.85;;
72284;SDS011;60220;53.552;10.092;2022-11-18T00:33:38;30.98;;;14.90;;
72284;SDS011;60220;53.552;10.092;2022-11-18T00:36:06;32.85;;;15.80;;
72284;SDS011;60220;53.552;10.092;2022-11-18T00:38:38;30.88;;;15.77;;
72284;SDS011;60220;53.552;10.092;2022-11-18T00:41:06;34.55;;;16.08;;
72284;SDS011;60220;53.552;10.092;2022-11-18T00:43:35;34.50;;;16.10;;
72284;SDS011;60220;53.552;10.092;2022-11-18T00:46:02;32.50;;;17.23;;
72284;SDS011;60220;53.552;10.092;2022-11-18T00:48:28;32.83;;;15.80;;
72284;SDS011;60220;53.552;10.092;2022-11-18T00:50:56;31.48;;;15.98;;
72284;SDS011;60220;53.552;10.092;2022-11-18T00:53:25;34.25;;;16.45;;
72284;SDS011;60220;53.552;10.092;2022-11-18T00:55:55;35.25;;;16.63;;
72284;SDS011;60220;53.552;10.092;2022-11-18T00:58:22;34.38;;;16.67;;
72284;SDS011;60220;53.552;10.092;2022-11-18T01:00:49;36.85;;;17.23;;
72284;SDS011;60220;53.552;10.092;2022-11-18T01:03:17;37.33;;;17.77;;
72284;SDS011;60220;53.552;10.092;2022-11-18T01:05:45;32.60;;;16.23;;
72284;SDS011;60220;53.552;10.092;2022-11-18T01:08:14;37.03;;;17.40;;
72284;SDS011;60220;53.552;10.092;2022-11-18T01:10:42;34.53;;;17.17;;
72284;SDS011;60220;53.552;10.092;2022-11-18T01:13:13;32.88;;;16.60;;
72284;SDS011;60220;53.552;10.092;2022-11-18T01:15:43;36.83;;;16.38;;
72284;SDS011;60220;53.552;10.092;2022-11-18T01:18:11;36.55;;;17.60;;
72284;SDS011;60220;53.552;10.092;2022-11-18T01:20:38;38.58;;;17.83;;
72284;SDS011;60220;53.552;10.092;2022-11-18T01:23:05;36.00;;;17.30;;
72284;SDS011;60220;53.552;10.092;2022-11-18T01:25:32;33.65;;;17.33;;
72284;SDS011;60220;53.552;10.092;2022-11-18T01:28:01;36.65;;;17.83;;
72284;SDS011;60220;53.552;10.092;2022-11-18T01:30:31;33.33;;;16.27;;
72284;SDS011;60220;53.552;10.092;2022-11-18T01:32:58;39.38;;;18.08;;
72284;SDS011;60220;53.552;10.092;2022-11-18T01:35:25;33.97;;;17.13;;
72284;SDS011;60220;53.552;10.092;2022-11-18T01:37:52;36.63;;;17.65;;
72284;SDS011;60220;53.552;10.092;2022-11-18T01:40:18;37.25;;;17.27;;
72284;SDS011;60220;53.552;10.092;2022-11-18T01:42:45;38.92;;;18.50;;
72284;SDS011;60220;53.552;10.092;2022-11-18T01:45:26;35.72;;;17.75;;
72284;SDS011;60220;53.552;10.092;2022-11-18T01:48:01;38.28;;;17.55;;
72284;SDS011;60220;53.552;10.092;2022-11-18T01:50:31;38.55;;;17.83;;
72284;SDS011;60220;53.552;10.092;2022-11-18T01:53:03;43.25;;;18.10;;
72284;SDS011;60220;53.552;10.092;2022-11-18T01:55:34;37.05;;;18.60;;
72284;SDS011;60220;53.552;10.092;2022-11-18T01:58:05;37.30;;;17.48;;
72284;SDS011;60220;53.552;10.092;2022-11-18T02:00:37;38.97;;;18.20;;
72284;SDS011;60220;53.552;10.092;2022-11-18T02:03:05;39.80;;;19.30;;
72284;SDS011;60220;53.552;10.092;2022-11-18T02:05:33;39.83;;;19.98;;
72284;SDS011;60220;53.552;10.092;2022-11-18T02:08:01;38.30;;;18.88;;
72284;SDS011;60220;53.552;10.092;2022-11-18T02:10:53;40.75;;;19.15;;
72284;SDS011;60220;53.552;10.092;2022-11-18T02:13:20;41.33;;;20.10;;
72284;SDS011;60220;53.552;10.092;2022-11-18T02:15:49;45.38;;;20.45;;
72284;SDS011;60220;53.552;10.092;2022-11-18T02:18:34;39.03;;;20.52;;
72284;SDS011;60220;53.552;10.092;2022-11-18T02:21:16;39.42;;;20.52;;
72284;SDS011;60220;53.552;10.092;2022-11-18T02:23:58;40.67;;;19.60;;
72284;SDS011;60220;53.552;10.092;2022-11-18T02:29:50;37.55;;;19.38;;
72284;SDS011;60220;53.552;10.092;2022-11-18T02:32:22;42.30;;;20.67;;
72284;SDS011;60220;53.552;10.092;2022-11-18T02:34:55;39.10;;;20.10;;
72284;SDS011;60220;53.552;10.092;2022-11-18T02:37:28;41.95;;;20.95;;
72284;SDS011;60220;53.552;10.092;2022-11-18T02:40:00;39.67;;;20.40;;
72284;SDS011;60220;53.552;10.092;2022-11-18T02:42:32;40.33;;;19.25;;
72284;SDS011;60220;53.552;10.092;2022-11-18T02:45:04;38.05;;;18.77;;
72284;SDS011;60220;53.552;10.092;2022-11-18T02:47:34;39.05;;;19.77;;
72284;SDS011;60220;53.552;10.092;2022-11-18T02:50:06;38.90;;;19.88;;
72284;SDS011;60220;53.552;10.092;2022-11-18T02:52:36;36.28;;;18.92;;
72284;SDS011;60220;53.552;10.092;2022-11-18T02:55:06;38.92;;;20.00;;
72284;SDS011;60220;53.552;10.092;2022-11-18T02:57:36;41.90;;;22.02;;
72284;SDS011;60220;53.552;10.092;2022-11-18T03:00:08;39.95;;;21.02;;
72284;SDS011;60220;53.552;10.092;2022-11-18T03:02:39;39.13;;;19.88;;
72284;SDS011;60220;53.552;10.092;2022-11-18T03:05:07;41.13;;;20.67;;
72284;SDS011;60220;53.552;10.092;2022-11-18T03:07:38;43.03;;;20.45;;
72284;SDS011;60220;53.552;10.092;2022-11-18T03:10:09;40.20;;;19.38;;
72284;SDS011;60220;53.552;10.092;2022-11-18T03:12:44;38.25;;;18.10;;
72284;SDS011;60220;53.552;10.092;2022-11-18T03:15:21;41.38;;;20.40;;
72284;SDS011;60220;53.552;10.092;2022-11-18T03:17:59;39.35;;;18.27;;
72284;SDS011;60220;53.552;10.092;2022-11-18T03:20:35;36.75;;;18.30;;
72284;SDS011;60220;53.552;10.092;2022-11-18T03:23:05;34.03;;;17.98;;
72284;SDS011;60220;53.552;10.092;2022-11-18T03:25:40;34.55;;;18.85;;
72284;SDS011;60220;53.552;10.092;2022-11-18T03:28:11;39.20;;;19.13;;
72284;SDS011;60220;53.552;10.092;2022-11-18T03:30:44;35.25;;;18.30;;
72284;SDS011;60220;53.552;10.092;2022-11-18T03:33:19;34.85;;;18.38;;
72284;SDS011;60220;53.552;10.092;2022-11-18T03:35:52;36.00;;;18.33;;
72284;SDS011;60220;53.552;10.092;2022-11-18T03:38:21;32.83;;;17.17;;
72284;SDS011;60220;53.552;10.092;2022-11-18T03:40:52;30.80;;;16.70;;
72284;SDS011;60220;53.552;10.092;2022-11-18T03:43:23;33.50;;;17.67;;
72284;SDS011;60220;53.552;10.092;2022-11-18T03:45:55;32.65;;;16.85;;
72284;SDS011;60220;53.552;10.092;2022-11-18T03:48:28;33.60;;;17.08;;
72284;SDS011;60220;53.552;10.092;2022-11-18T03:51:00;33.03;;;18.17;;
72284;SDS011;60220;53.552;10.092;2022-11-18T03:53:31;32.75;;;16.92;;
72284;SDS011;60220;53.552;10.092;2022-11-18T03:56:01;31.05;;;17.63;;
72284;SDS011;60220;53.552;10.092;2022-11-18T03:58:32;34.45;;;17.80;;
72284;SDS011;60220;53.552;10.092;2022-11-18T04:01:07;32.70;;;16.75;;
72284;SDS011;60220;53.552;10.092;2022-11-18T04:03:38;33.20;;;18.15;;
72284;SDS011;60220;53.552;10.092;2022-11-18T04:06:08;34.50;;;17.83;;
72284;SDS011;60220;53.552;10.092;2022-11-18T04:08:42;30.42;;;16.73;;
72284;SDS011;60220;53.552;10.092;2022-11-18T04:11:14;26.38;;;14.00;;
72284;SDS011;60220;53.552;10.092;2022-11-18T04:13:58;33.60;;;17.52;;
72284;SDS011;60220;53.552;10.092;2022-11-18T04:16:29;34.10;;;17.92;;
72284;SDS011;60220;53.552;10.092;2022-11-18T04:18:58;36.90;;;18.48;;
72284;SDS011;60220;53.552;10.092;2022-11-18T04:21:30;30.15;;;17.40;;
72284;SDS011;60220;53.552;10.092;2022-11-18T04:23:57;32.75;;;16.65;;
72284;SDS011;60220;53.552;10.092;2022-11-18T04:26:26;32.17;;;16.92;;
72284;SDS011;60220;53.552;10.092;2022-11-18T04:28:53;35.05;;;18.00;;
72284;SDS011;60220;53.552;10.092;2022-11-18T04:31:19;30.40;;;16.73;;
72284;SDS011;60220;53.552;10.092;2022-11-18T04:33:47;32.85;;;18.02;;
72284;SDS011;60220;53.552;10.092;2022-11-18T04:36:14;29.65;;;15.88;;
72284;SDS011;60220;53.552;10.092;2022-11-18T04:38:43;37.83;;;19.67;;
72284;SDS011;60220;53.552;10.092;2022-11-18T04:41:11;33.47;;;17.35;;
72284;SDS011;60220;53.552;10.092;2022-11-18T04:43:40;35.25;;;17.90;;
72284;SDS011;60220;53.552;10.092;2022-11-18T04:46:07;38.95;;;19.40;;
72284;SDS011;60220;53.552;10.092;2022-11-18T04:48:36;36.25;;;19.00;;
72284;SDS011;60220;53.552;10.092;2022-11-18T04:51:09;33.63;;;17.25;;
72284;SDS011;60220;53.552;10.092;2022-11-18T04:53:35;35.90;;;19.13;;
72284;SDS011;60220;53.552;10.092;2022-11-18T04:56:03;32.38;;;17.00;;
72284;SDS011;60220;53.552;10.092;2022-11-18T04:58:31;37.20;;;19.77;;
72284;SDS011;60220;53.552;10.092;2022-11-18T05:01:00;41.92;;;21.02;;
72284;SDS011;60220;53.552;10.092;2022-11-18T05:03:30;33.03;;;17.50;;
72284;SDS011;60220;53.552;10.092;2022-11-18T05:05:59;35.80;;;18.77;;
72284;SDS011;60220;53.552;10.092;2022-11-18T05:08:32;36.03;;;18.95;;
72284;SDS011;60220;53.552;10.092;2022-11-18T05:11:18;38.72;;;20.90;;
72284;SDS011;60220;53.552;10.092;2022-11-18T05:14:04;39.67;;;20.58;;
72284;SDS011;60220;53.552;10.092;2022-11-18T05:16:30;40.53;;;21.02;;
72284;SDS011;60220;53.552;10.092;2022-11-18T05:18:57;40.88;;;20.83;;
72284;SDS011;60220;53.552;10.092;2022-11-18T05:21:26;37.88;;;20.77;;
72284;SDS011;60220;53.552;10.092;2022-11-18T05:23:54;42.42;;;21.10;;
72284;SDS011;60220;53.552;10.092;2022-11-18T05:26:24;42.25;;;22.08;;
72284;SDS011;60220;53.552;10.092;2022-11-18T05:28:51;43.20;;;21.83;;
72284;SDS011;60220;53.552;10.092;2022-11-18T05:31:24;48.50;;;21.63;;
72284;SDS011;60220;53.552;10.092;2022-11-18T05:33:51;44.80;;;20.85;;
72284;SDS011;60220;53.552;10.092;2022-11-18T05:36:20;43.17;;;21.48;;
72284;SDS011;60220;53.552;10.092;2022-11-18T05:38:47;43.50;;;22.63;;
72284;SDS011;60220;53.552;10.092;2022-11-18T05:41:16;42.05;;;21.30;;
72284;SDS011;60220;53.552;10.092;2022-11-18T05:43:59;42.25;;;21.33;;
72284;SDS011;60220;53.552;10.092;2022-11-18T05:46:28;46.88;;;21.65;;
72284;SDS011;60220;53.552;10.092;2022-11-18T05:48:58;43.53;;;21.83;;
72284;SDS011;60220;53.552;10.092;2022-11-18T05:51:27;38.47;;;21.13;;
72284;SDS011;60220;53.552;10.092;2022-11-18T05:53:56;40.67;;;21.50;;
72284;SDS011;60220;53.552;10.092;2022-11-18T05:56:27;40.35;;;20.73;;
72284;SDS011;60220;53.552;10.092;2022-11-18T05:58:55;42.22;;;21.45;;
72284;SDS011;60220;53.552;10.092;2022-11-18T06:01:23;40.80;;;21.92;;
72284;SDS011;60220;53.552;10.092;2022-11-18T06:03:53;47.70;;;25.58;;
72284;SDS011;60220;53.552;10.092;2022-11-18T06:06:20;46.33;;;22.63;;
72284;SDS011;60220;53.552;10.092;2022-11-18T06:08:53;43.40;;;20.60;;
72284;SDS011;60220;53.552;10.092;2022-11-18T06:11:25;42.08;;;20.58;;
72284;SDS011;60220;53.552;10.092;2022-11-18T06:13:55;39.13;;;19.45;;
72284;SDS011;60220;53.552;10.092;2022-11-18T06:16:26;39.25;;;20.95;;
72284;SDS011;60220;53.552;10.092;2022-11-18T06:18:56;42.67;;;21.60;;
72284;SDS011;60220;53.552;10.092;2022-11-18T06:21:23;43.97;;;21.08;;
72284;SDS011;60220;53.552;10.092;2022-11-18T06:23:50;37.22;;;20.25;;
72284;SDS011;60220;53.552;10.092;2022-11-18T06:26:17;41.08;;;19.45;;
72284;SDS011;60220;53.552;10.092;2022-11-18T06:28:45;45.63;;;24.38;;
72284;SDS011;60220;53.552;10.092;2022-11-18T06:31:13;37.25;;;20.27;;
72284;SDS011;60220;53.552;10.092;2022-11-18T06:33:41;41.42;;;19.25;;
72284;SDS011;60220;53.552;10.092;2022-11-18T06:36:08;43.70;;;21.77;;
72284;SDS011;60220;53.552;10.092;2022-11-18T06:38:35;39.45;;;20.08;;
72284;SDS011;60220;53.552;10.092;2022-11-18T06:41:01;44.38;;;23.60;;
72284;SDS011;60220;53.552;10.092;2022-11-18T06:43:28;45.55;;;21.83;;
72284;SDS011;60220;53.552;10.092;2022-11-18T06:46:05;43.30;;;21.33;;
72284;SDS011;60220;53.552;10.092;2022-11-18T06:48:50;41.88;;;20.83;;
72284;SDS011;60220;53.552;10.092;2022-11-18T06:51:19;34.35;;;19.80;;
72284;SDS011;60220;53.552;10.092;2022-11-18T06:53:46;45.17;;;21.75;;
72284;SDS011;60220;53.552;10.092;2022-11-18T06:56:13;49.10;;;24.25;;
72284;SDS011;60220;53.552;10.092;2022-11-18T06:58:40;45.60;;;22.73;;
72284;SDS011;60220;53.552;10.092;2022-11-18T07:01:12;48.55;;;22.83;;
72284;SDS011;60220;53.552;10.092;2022-11-18T07:03:40;41.30;;;21.85;;
72284;SDS011;60220;53.552;10.092;2022-11-18T07:06:07;53.15;;;23.80;;
72284;SDS011;60220;53.552;10.092;2022-11-18T07:08:38;51.53;;;23.33;;
72284;SDS011;60220;53.552;10.092;2022-11-18T07:11:09;50.80;;;24.58;;
72284;SDS011;60220;53.552;10.092;2022-11-18T07:13:40;44.00;;;22.55;;
72284;SDS011;60220;53.552;10.092;2022-11-18T07:16:07;48.47;;;22.27;;
72284;SDS011;60220;53.552;10.092;2022-11-18T07:18:37;45.78;;;23.70;;
72284;SDS011;60220;53.552;10.092;2022-11-18T07:21:09;50.13;;;24.33;;
72284;SDS011;60220;53.552;10.092;2022-11-18T07:23:37;44.15;;;23.02;;
72284;SDS011;60220;53.552;10.092;2022-11-18T07:26:04;43.58;;;22.30;;
72284;SDS011;60220;53.552;10.092;2022-11-18T07:28:32;44.15;;;20.75;;
72284;SDS011;60220;53.552;10.092;2022-11-18T07:31:00;45.55;;;21.83;;
72284;SDS011;60220;53.552;10.092;2022-11-18T07:33:27;42.78;;;22.25;;
72284;SDS011;60220;53.552;10.092;2022-11-18T07:35:56;39.15;;;20.40;;
72284;SDS011;60220;53.552;10.092;2022-11-18T07:38:25;41.58;;;22.25;;
72284;SDS011;60220;53.552;10.092;2022-11-18T07:40:52;41.25;;;20.85;;
72284;SDS011;60220;53.552;10.092;2022-11-18T07:43:19;46.88;;;23.25;;
72284;SDS011;60220;53.552;10.092;2022-11-18T07:45:45;39.35;;;20.65;;
72284;SDS011;60220;53.552;10.092;2022-11-18T07:48:14;39.47;;;20.35;;
72284;SDS011;60220;53.552;10.092;2022-11-18T07:50:41;34.55;;;18.98;;
72284;SDS011;60220;53.552;10.092;2022-11-18T07:53:09;41.30;;;23.40;;
72284;SDS011;60220;53.552;10.092;2022-11-18T07:55:35;32.00;;;16.20;;
72284;SDS011;60220;53.552;10.092;2022-11-18T07:58:04;35.58;;;18.85;;
72284;SDS011;60220;53.552;10.092;2022-11-18T08:00:31;31.60;;;17.38;;
72284;SDS011;60220;53.552;10.092;2022-11-18T08:02:58;33.47;;;19.08;;
72284;SDS011;60220;53.552;10.092;2022-11-18T08:05:24;32.53;;;16.42;;
72284;SDS011;60220;53.552;10.092;2022-11-18T08:07:51;26.85;;;15.43;;
72284;SDS011;60220;53.552;10.092;2022-11-18T08:10:19;29.95;;;16.85;;
72284;SDS011;60220;53.552;10.092;2022-11-18T08:12:46;32.97;;;16.90;;
72284;SDS011;60220;53.552;10.092;2022-11-18T08:15:15;27.33;;;15.15;;
72284;SDS011;60220;53.552;10.092;2022-11-18T08:17:42;28.52;;;16.10;;
72284;SDS011;60220;53.552;10.092;2022-11-18T08:20:09;31.73;;;17.30;;
72284;SDS011;60220;53.552;10.092;2022-11-18T08:22:36;30.63;;;16.40;;
72284;SDS011;60220;53.552;10.092;2022-11-18T08:25:03;27.33;;;15.85;;
72284;SDS011;60220;53.552;10.092;2022-11-18T08:27:34;28.77;;;16.08;;
72284;SDS011;60220;53.552;10.092;2022-11-18T08:30:03;29.75;;;14.98;;
72284;SDS011;60220;53.552;10.092;2022-11-18T08:32:30;30.73;;;17.75;;
72284;SDS011;60220;53.552;10.092;2022-11-18T08:34:57;28.13;;;15.60;;
72284;SDS011;60220;53.552;10.092;2022-11-18T08:37:24;26.80;;;15.18;;
72284;SDS011;60220;53.552;10.092;2022-11-18T08:39:51;38.35;;;20.60;;
72284;SDS011;60220;53.552;10.092;2022-11-18T08:42:17;26.58;;;15.23;;
72284;SDS011;60220;53.552;10.092;2022-11-18T08:44:50;26.30;;;15.35;;
72284;SDS011;60220;53.552;10.092;2022-11-18T08:47:16;26.23;;;14.88;;
72284;SDS011;60220;53.552;10.092;2022-11-18T08:49:45;28.73;;;15.93;;
72284;SDS011;60220;53.552;10.092;2022-11-18T08:52:12;27.40;;;15.55;;
72284;SDS011;60220;53.552;10.092;2022-11-18T08:54:41;28.88;;;15.25;;
72284;SDS011;60220;53.552;10.092;2022-11-18T08:57:08;26.05;;;15.77;;
72284;SDS011;60220;53.552;10.092;2022-11-18T08:59:35;25.23;;;14.88;;
72284;SDS011;60220;53.552;10.092;2022-11-18T09:02:03;30.13;;;14.85;;
72284;SDS011;60220;53.552;10.092;2022-11-18T09:04:29;29.35;;;16.92;;
72284;SDS011;60220;53.552;10.092;2022-11-18T09:06:56;27.33;;;14.93;;
72284;SDS011;60220;53.552;10.092;2022-11-18T09:09:23;27.33;;;14.48;;
72284;SDS011;60220;53.552;10.092;2022-11-18T09:11:50;28.20;;;14.95;;
72284;SDS011;60220;53.552;10.092;2022-11-18T09:14:19;27.70;;;15.15;;
72284;SDS011;60220;53.552;10.092;2022-11-18T09:16:45;28.20;;;14.93;;
72284;SDS011;60220;53.552;10.092;2022-11-18T09:19:16;23.48;;;14.93;;
72284;SDS011;60220;53.552;10.092;2022-11-18T09:21:43;29.38;;;15.88;;
72284;SDS011;60220;53.552;10.092;2022-11-18T09:24:10;28.30;;;16.02;;
72284;SDS011;60220;53.552;10.092;2022-11-18T09:26:36;27.75;;;15.57;;
72284;SDS011;60220;53.552;10.092;2022-11-18T09:29:03;25.23;;;15.38;;
72284;SDS011;60220;53.552;10.092;2022-11-18T09:31:30;28.70;;;15.90;;
72284;SDS011;60220;53.552;10.092;2022-11-18T09:33:57;24.23;;;13.88;;
72284;SDS011;60220;53.552;10.092;2022-11-18T09:36:26;24.75;;;13.10;;
72284;SDS011;60220;53.552;10.092;2022-11-18T09:38:54;24.25;;;13.70;;
72284;SDS011;60220;53.552;10.092;2022-11-18T09:41:24;22.63;;;12.80;;
72284;SDS011;60220;53.552;10.092;2022-11-18T09:44:08;25.58;;;13.65;;
72284;SDS011;60220;53.552;10.092;2022-11-18T09:46:48;30.90;;;17.52;;
72284;SDS011;60220;53.552;10.092;2022-11-18T09:49:25;25.17;;;13.90;;
72284;SDS011;60220;53.552;10.092;2022-11-18T09:51:55;21.98;;;12.35;;
72284;SDS011;60220;53.552;10.092;2022-11-18T09:54:27;22.23;;;11.50;;
72284;SDS011;60220;53.552;10.092;2022-11-18T09:56:56;20.63;;;11.85;;
72284;SDS011;60220;53.552;10.092;2022-11-18T09:59:24;18.73;;;10.75;;
72284;SDS011;60220;53.552;10.092;2022-11-18T10:01:56;19.13;;;12.00;;
72284;SDS011;60220;53.552;10.092;2022-11-18T10:04:29;20.20;;;11.93;;
72284;SDS011;60220;53.552;10.092;2022-11-18T10:06:57;18.80;;;10.98;;
72284;SDS011;60220;53.552;10.092;2022-11-18T10:09:25;19.05;;;11.25;;
72284;SDS011;60220;53.552;10.092;2022-11-18T10:12:13;20.65;;;11.30;;
72284;SDS011;60220;53.552;10.092;2022-11-18T10:14:53;17.85;;;10.23;;
72284;SDS011;60220;53.552;10.092;2022-11-18T10:17:39;18.13;;;10.63;;
72284;SDS011;60220;53.552;10.092;2022-11-18T10:20:28;17.50;;;10.63;;
72284;SDS011;60220;53.552;10.092;2022-11-18T10:23:06;16.00;;;10.18;;
72284;SDS011;60220;53.552;10.092;2022-11-18T10:25:38;17.70;;;10.85;;
72284;SDS011;60220;53.552;10.092;2022-11-18T10:28:16;18.75;;;10.68;;
72284;SDS011;60220;53.552;10.092;2022-11-18T10:30:50;15.20;;;9.30;;
72284;SDS011;60220;53.552;10.092;2022-11-18T10:33:22;17.35;;;8.35;;
72284;SDS011;60220;53.552;10.092;2022-11-18T10:36:07;15.15;;;9.63;;
72284;SDS011;60220;53.552;10.092;2022-11-18T10:38:39;12.77;;;8.23;;
72284;SDS011;60220;53.552;10.092;2022-11-18T10:41:12;16.10;;;9.15;;
72284;SDS011;60220;53.552;10.092;2022-11-18T10:43:48;14.98;;;8.75;;
72284;SDS011;60220;53.552;10.092;2022-11-18T10:46:24;15.85;;;9.85;;
72284;SDS011;60220;53.552;10.092;2022-11-18T10:49:09;17.27;;;11.00;;
72284;SDS011;60220;53.552;10.092;2022-11-18T10:51:40;14.27;;;8.40;;
72284;SDS011;60220;53.552;10.092;2022-11-18T10:54:13;15.23;;;9.38;;
72284;SDS011;60220;53.552;10.092;2022-11-18T10:56:45;12.70;;;7.60;;
72284;SDS011;60220;53.552;10.092;2022-11-18T10:59:16;16.95;;;7.85;;
72284;SDS011;60220;53.552;10.092;2022-11-18T11:01:56;12.35;;;7.50;;
72284;SDS011;60220;53.552;10.092;2022-11-18T11:04:25;12.02;;;7.38;;
72284;SDS011;60220;53.552;10.092;2022-11-18T11:06:56;10.95;;;6.97;;
72284;SDS011;60220;53.552;10.092;2022-11-18T11:09:26;12.30;;;6.78;;
72284;SDS011;60220;53.552;10.092;2022-11-18T11:11:56;11.57;;;6.72;;
72284;SDS011;60220;53.552;10.092;2022-11-18T11:14:33;12.82;;;7.15;;
72284;SDS011;60220;53.552;10.092;2022-11-18T11:17:18;11.30;;;6.70;;
72284;SDS011;60220;53.552;10.092;2022-11-18T11:19:49;10.90;;;7.07;;
72284;SDS011;60220;53.552;10.092;2022-11-18T11:22:18;10.50;;;6.05;;
72284;SDS011;60220;53.552;10.092;2022-11-18T11:24:51;16.40;;;7.20;;
72284;SDS011;60220;53.552;10.092;2022-11-18T11:27:28;11.10;;;6.80;;
72284;SDS011;60220;53.552;10.092;2022-11-18T11:30:08;12.65;;;7.15;;
72284;SDS011;60220;53.552;10.092;2022-11-18T11:35:41;12.50;;;6.55;;
72284;SDS011;60220;53.552;10.092;2022-11-18T11:38:20;9.70;;;6.40;;
72284;SDS011;60220;53.552;10.092;2022-11-18T11:41:06;9.73;;;6.70;;
72284;SDS011;60220;53.552;10.092;2022-11-18T11:46:58;12.35;;;6.70;;
72284;SDS011;60220;53.552;10.092;2022-11-18T11:49:56;13.02;;;7.70;;
72284;SDS011;60220;53.552;10.092;2022-11-18T11:52:30;13.82;;;7.72;;
72284;SDS011;60220;53.552;10.092;2022-11-18T11:57:59;14.23;;;6.85;;
72284;SDS011;60220;53.552;10.092;2022-11-18T12:00:48;17.15;;;7.50;;
72284;SDS011;60220;53.552;10.092;2022-11-18T12:03:34;14.60;;;7.07;;
72284;SDS011;60220;53.552;10.092;2022-11-18T12:06:09;12.50;;;6.70;;
72284;SDS011;60220;53.552;10.092;2022-11-18T12:08:44;14.82;;;7.63;;
72284;SDS011;60220;53.552;10.092;2022-11-18T12:11:27;12.85;;;7.10;;
72284;SDS011;60220;53.552;10.092;2022-11-18T12:14:15;13.82;;;6.85;;
72284;SDS011;60220;53.552;10.092;2022-11-18T12:16:54;12.45;;;6.45;;
72284;SDS011;60220;53.552;10.092;2022-11-18T12:19:25;11.52;;;6.40;;
72284;SDS011;60220;53.552;10.092;2022-11-18T12:24:42;11.15;;;6.38;;
72284;SDS011;60220;53.552;10.092;2022-11-18T12:27:12;14.75;;;7.95;;
72284;SDS011;60220;53.552;10.092;2022-11-18T12:29:57;13.35;;;6.45;;
72284;SDS011;60220;53.552;10.092;2022-11-18T12:32:26;12.30;;;6.43;;
72284;SDS011;60220;53.552;10.092;2022-11-18T12:34:57;14.82;;;6.95;;
72284;SDS011;60220;53.552;10.092;2022-11-18T12:37:43;15.63;;;7.90;;
72284;SDS011;60220;53.552;10.092;2022-11-18T12:40:35;12.13;;;6.55;;
72284;SDS011;60220;53.552;10.092;2022-11-18T12:46:48;17.85;;;8.35;;
72284;SDS011;60220;53.552;10.092;2022-11-18T12:52:51;14.50;;;6.90;;
72284;SDS011;60220;53.552;10.092;2022-11-18T12:55:20;11.70;;;6.05;;
72284;SDS011;60220;53.552;10.092;2022-11-18T12:58:00;10.30;;;6.57;;
72284;SDS011;60220;53.552;10.092;2022-11-18T13:00:30;11.25;;;6.18;;
72284;SDS011;60220;53.552;10.092;2022-11-18T13:03:26;11.82;;;6.15;;
72284;SDS011;60220;53.552;10.092;2022-11-18T13:05:59;11.13;;;5.75;;
72284;SDS011;60220;53.552;10.092;2022-11-18T13:08:29;10.15;;;5.70;;
72284;SDS011;60220;53.552;10.092;2022-11-18T13:11:06;11.20;;;5.72;;
72284;SDS011;60220;53.552;10.092;2022-11-18T13:14:00;8.85;;;4.75;;
72284;SDS011;60220;53.552;10.092;2022-11-18T13:16:53;12.38;;;6.13;;
72284;SDS011;60220;53.552;10.092;2022-11-18T13:19:38;9.68;;;5.22;;
72284;SDS011;60220;53.552;10.092;2022-11-18T13:22:12;9.23;;;5.20;;
72284;SDS011;60220;53.552;10.092;2022-11-18T13:25:00;8.73;;;5.25;;
72284;SDS011;60220;53.552;10.092;2022-11-18T13:27:41;6.05;;;4.00;;
72284;SDS011;60220;53.552;10.092;2022-11-18T13:30:14;10.07;;;4.55;;
72284;SDS011;60220;53.552;10.092;2022-11-18T13:32:42;8.63;;;4.57;;
72284;SDS011;60220;53.552;10.092;2022-11-18T13:35:12;7.47;;;4.03;;
72284;SDS011;60220;53.552;10.092;2022-11-18T13:37:47;6.90;;;4.30;;
72284;SDS011;60220;53.552;10.092;2022-11-18T13:40:20;8.73;;;3.75;;
72284;SDS011;60220;53.552;10.092;2022-11-18T13:42:49;6.82;;;3.88;;
72284;SDS011;60220;53.552;10.092;2022-11-18T13:45:16;9.82;;;3.88;;
72284;SDS011;60220;53.552;10.092;2022-11-18T13:47:47;5.20;;;3.45;;
72284;SDS011;60220;53.552;10.092;2022-11-18T13:50:23;7.00;;;3.80;;
72284;SDS011;60220;53.552;10.092;2022-11-18T13:53:00;8.52;;;3.50;;
72284;SDS011;60220;53.552;10.092;2022-11-18T13:55:33;5.13;;;3.75;;
72284;SDS011;60220;53.552;10.092;2022-11-18T13:58:04;6.38;;;3.38;;
72284;SDS011;60220;53.552;10.092;2022-11-18T14:00:37;5.78;;;3.55;;
72284;SDS011;60220;53.552;10.092;2022-11-18T14:03:05;5.07;;;3.28;;
72284;SDS011;60220;53.552;10.092;2022-11-18T14:05:52;6.00;;;3.67;;
72284;SDS011;60220;53.552;10.092;2022-11-18T14:08:21;4.57;;;3.20;;
72284;SDS011;60220;53.552;10.092;2022-11-18T14:10:54;5.85;;;3.70;;
72284;SDS011;60220;53.552;10.092;2022-11-18T14:13:27;7.38;;;3.50;;
72284;SDS011;60220;53.552;10.092;2022-11-18T14:15:56;7.13;;;3.25;;
72284;SDS011;60220;53.552;10.092;2022-11-18T14:18:28;6.35;;;3.50;;
72284;SDS011;60220;53.552;10.092;2022-11-18T14:21:02;4.63;;;3.13;;
72284;SDS011;60220;53.552;10.092;2022-11-18T14:23:31;8.07;;;3.83;;
72284;SDS011;60220;53.552;10.092;2022-11-18T14:26:02;22.17;;;10.43;;
72284;SDS011;60220;53.552;10.092;2022-11-18T14:28:31;18.23;;;8.63;;
72284;SDS011;60220;53.552;10.092;2022-11-18T14:31:04;6.20;;;3.72;;
72284;SDS011;60220;53.552;10.092;2022-11-18T14:33:34;7.50;;;4.20;;
72284;SDS011;60220;53.552;10.092;2022-11-18T14:36:10;7.28;;;3.95;;
72284;SDS011;60220;53.552;10.092;2022-11-18T14:38:43;7.47;;;3.85;;
72284;SDS011;60220;53.552;10.092;2022-11-18T14:41:12;12.05;;;4.22;;
72284;SDS011;60220;53.552;10.092;2022-11-18T14:43:40;7.68;;;3.95;;
72284;SDS011;60220;53.552;10.092;2022-11-18T14:46:11;4.93;;;3.78;;
72284;SDS011;60220;53.552;10.092;2022-11-18T14:48:41;5.93;;;3.65;;
72284;SDS011;60220;53.552;10.092;2022-11-18T14:51:13;7.88;;;3.75;;
72284;SDS011;60220;53.552;10.092;2022-11-18T14:53:43;5.72;;;3.55;;
72284;SDS011;60220;53.552;10.092;2022-11-18T14:56:11;11.52;;;3.75;;
72284;SDS011;60220;53.552;10.092;2022-11-18T14:58:40;7.32;;;3.78;;
72284;SDS011;60220;53.552;10.092;2022-11-18T15:01:08;7.75;;;4.28;;